createdAt,value
2023-01-17T00:00:33.071Z,16.17
2023-01-17T00:03:05.083Z,13.98
2023-01-17T00:05:59.483Z,13.82
2023-01-17T00:08:50.234Z,20.00
2023-01-17T00:11:22.095Z,24.60
2023-01-17T00:13:54.033Z,16.67
2023-01-17T00:16:26.041Z,18.48
2023-01-17T00:19:16.791Z,18.38
2023-01-17T00:24:57.750Z,31.93
2023-01-17T00:27:30.954Z,25.42
2023-01-17T00:30:02.882Z,19.15
2023-01-17T00:32:34.688Z,19.60
2023-01-17T00:35:06.874Z,21.75
2023-01-17T00:37:38.839Z,17.65
2023-01-17T00:40:11.200Z,15.35
2023-01-17T00:42:43.027Z,15.25
2023-01-17T00:45:33.660Z,18.60
2023-01-17T00:48:24.363Z,23.58
2023-01-17T00:51:15.097Z,21.80
2023-01-17T00:54:05.725Z,15.68
2023-01-17T00:56:56.354Z,14.90
2023-01-17T00:59:47.033Z,15.18
2023-01-17T01:02:37.738Z,14.63
2023-01-17T01:05:29.675Z,18.58
2023-01-17T01:08:20.872Z,18.40
2023-01-17T01:11:11.615Z,17.42
2023-01-17T01:14:02.423Z,18.75
2023-01-17T01:16:52.958Z,15.05
2023-01-17T01:19:43.524Z,16.60
2023-01-17T01:22:34.401Z,14.60
2023-01-17T01:28:26.353Z,13.80
2023-01-17T01:31:24.160Z,14.38
2023-01-17T01:33:56.068Z,15.48
2023-01-17T01:36:28.039Z,16.00
2023-01-17T01:39:00.382Z,16.35
2023-01-17T01:41:32.326Z,16.08
2023-01-17T01:44:04.564Z,15.63
2023-01-17T01:46:41.666Z,16.60
2023-01-17T01:49:25.001Z,17.58
2023-01-17T01:52:01.765Z,17.10
2023-01-17T01:54:44.347Z,16.38
2023-01-17T01:57:20.729Z,15.63
2023-01-17T01:59:58.398Z,16.50
2023-01-17T02:02:31.777Z,17.45
2023-01-17T02:05:04.899Z,17.35
2023-01-17T02:08:01.963Z,16.02
2023-01-17T02:10:39.881Z,17.52
2023-01-17T02:13:14.794Z,15.82
2023-01-17T02:16:13.521Z,18.30
2023-01-17T02:19:13.380Z,15.55
2023-01-17T02:22:14.225Z,15.30
2023-01-17T02:25:15.692Z,16.98
2023-01-17T02:27:53.503Z,16.45
2023-01-17T02:30:56.912Z,16.38
2023-01-17T02:33:47.993Z,16.92
2023-01-17T02:37:07.233Z,15.82
2023-01-17T02:39:47.283Z,14.88
2023-01-17T02:42:22.315Z,15.40
2023-01-17T02:44:54.163Z,16.08
2023-01-17T02:47:31.655Z,15.07
2023-01-17T02:50:16.159Z,15.27
2023-01-17T02:53:09.896Z,14.60
2023-01-17T02:56:23.590Z,12.60
2023-01-17T02:59:33.546Z,13.90
2023-01-17T03:02:35.717Z,13.73
2023-01-17T03:05:13.956Z,13.48
2023-01-17T03:07:48.554Z,13.68
2023-01-17T03:10:21.223Z,13.88
2023-01-17T03:12:57.993Z,12.95
2023-01-17T03:15:29.872Z,12.05
2023-01-17T03:18:08.122Z,13.32
2023-01-17T03:20:40.243Z,11.95
2023-01-17T03:23:12.218Z,12.63
2023-01-17T03:25:44.186Z,12.43
2023-01-17T03:28:16.300Z,12.60
2023-01-17T03:30:48.403Z,11.57
2023-01-17T03:33:20.650Z,11.52
2023-01-17T03:35:53.173Z,12.30
2023-01-17T03:38:26.572Z,12.50
2023-01-17T03:40:58.699Z,12.07
2023-01-17T03:43:31.315Z,12.25
2023-01-17T03:46:17.610Z,13.43
2023-01-17T03:48:50.447Z,11.90
2023-01-17T03:51:22.435Z,12.55
2023-01-17T03:53:54.664Z,12.35
2023-01-17T03:56:26.828Z,12.55
2023-01-17T03:58:58.886Z,12.70
2023-01-17T04:01:31.195Z,13.20
2023-01-17T04:04:03.243Z,12.63
2023-01-17T04:06:35.236Z,13.40
2023-01-17T04:09:07.316Z,12.13
2023-01-17T04:11:40.797Z,12.85
2023-01-17T04:14:12.783Z,13.70
2023-01-17T04:16:45.083Z,13.65
2023-01-17T04:19:17.742Z,13.63
2023-01-17T04:21:49.910Z,13.45
2023-01-17T04:24:21.845Z,12.43
2023-01-17T04:26:53.834Z,13.35
2023-01-17T04:29:25.876Z,13.27
2023-01-17T04:31:57.834Z,13.20
2023-01-17T04:34:29.785Z,13.90
2023-01-17T04:37:01.880Z,13.23
2023-01-17T04:39:33.813Z,13.00
2023-01-17T04:42:05.931Z,13.55
2023-01-17T04:44:37.927Z,13.48
2023-01-17T04:47:09.833Z,14.00
2023-01-17T04:49:44.070Z,14.27
2023-01-17T04:52:18.953Z,13.90
2023-01-17T04:54:51.052Z,14.50
2023-01-17T04:57:23.120Z,13.98
2023-01-17T04:59:55.064Z,13.18
2023-01-17T05:02:27.211Z,14.23
2023-01-17T05:04:59.178Z,14.35
2023-01-17T05:07:31.190Z,12.70
2023-01-17T05:10:04.832Z,15.07
2023-01-17T05:12:36.789Z,13.93
2023-01-17T05:15:09.035Z,15.65
2023-01-17T05:17:41.026Z,14.93
2023-01-17T05:20:12.973Z,12.68
2023-01-17T05:22:45.236Z,14.43
2023-01-17T05:25:17.243Z,13.02
2023-01-17T05:27:49.634Z,13.63
2023-01-17T05:30:23.109Z,14.35
2023-01-17T05:32:56.562Z,15.15
2023-01-17T05:35:33.077Z,14.35
2023-01-17T05:38:05.306Z,16.85
2023-01-17T05:40:40.404Z,13.88
2023-01-17T05:43:12.390Z,14.68
2023-01-17T05:45:44.366Z,13.77
2023-01-17T05:48:16.488Z,13.93
2023-01-17T05:50:48.477Z,15.40
2023-01-17T05:53:20.730Z,14.63
2023-01-17T05:55:53.400Z,14.98
2023-01-17T05:58:25.371Z,12.43
2023-01-17T06:00:57.526Z,14.02
2023-01-17T06:03:29.891Z,14.05
2023-01-17T06:06:01.767Z,14.10
2023-01-17T06:08:33.772Z,14.55
2023-01-17T06:11:05.787Z,14.50
2023-01-17T06:13:37.703Z,14.10
2023-01-17T06:16:09.800Z,14.55
2023-01-17T06:18:41.656Z,15.57
2023-01-17T06:21:13.587Z,15.23
2023-01-17T06:23:45.447Z,15.63
2023-01-17T06:26:17.402Z,15.75
2023-01-17T06:28:49.326Z,15.00
2023-01-17T06:31:21.409Z,16.75
2023-01-17T06:33:53.770Z,16.38
2023-01-17T06:36:25.720Z,15.27
2023-01-17T06:38:57.603Z,16.33
2023-01-17T06:41:29.483Z,15.00
2023-01-17T06:44:01.478Z,14.70
2023-01-17T06:46:33.492Z,14.98
2023-01-17T06:49:05.991Z,16.67
2023-01-17T06:51:37.908Z,18.42
2023-01-17T06:54:10.431Z,20.42
2023-01-17T06:56:42.446Z,20.23
2023-01-17T06:59:14.387Z,18.63
2023-01-17T07:01:46.434Z,16.70
2023-01-17T07:04:18.421Z,16.52
2023-01-17T07:06:50.765Z,16.95
2023-01-17T07:09:22.788Z,17.60
2023-01-17T07:11:59.994Z,14.73
2023-01-17T07:14:32.090Z,17.77
2023-01-17T07:17:04.558Z,16.98
2023-01-17T07:19:36.549Z,16.77
2023-01-17T07:22:11.045Z,15.20
2023-01-17T07:24:43.003Z,15.48
2023-01-17T07:27:14.913Z,15.70
2023-01-17T07:29:46.754Z,15.98
2023-01-17T07:32:18.770Z,14.82
2023-01-17T07:34:51.240Z,15.93
2023-01-17T07:37:23.618Z,15.32
2023-01-17T07:39:55.615Z,16.52
2023-01-17T07:42:27.612Z,15.43
2023-01-17T07:45:00.991Z,13.98
2023-01-17T07:47:34.320Z,14.02
2023-01-17T07:50:07.757Z,15.23
2023-01-17T07:52:39.754Z,13.93
2023-01-17T07:55:11.704Z,13.57
2023-01-17T07:57:43.642Z,16.42
2023-01-17T08:00:16.044Z,14.30
2023-01-17T08:02:47.950Z,14.00
2023-01-17T08:05:19.860Z,15.13
2023-01-17T08:07:52.403Z,14.02
2023-01-17T08:10:24.517Z,14.75
2023-01-17T08:12:56.487Z,14.55
2023-01-17T08:15:28.576Z,12.77
2023-01-17T08:18:00.754Z,13.27
2023-01-17T08:20:32.752Z,12.77
2023-01-17T08:23:04.734Z,11.98
2023-01-17T08:25:36.884Z,13.05
2023-01-17T08:28:08.863Z,13.15
2023-01-17T08:30:41.349Z,12.38
2023-01-17T08:33:13.324Z,11.90
2023-01-17T08:35:53.175Z,11.48
2023-01-17T08:38:25.899Z,11.20
2023-01-17T08:41:01.203Z,13.32
2023-01-17T08:43:33.535Z,12.60
2023-01-17T08:46:06.581Z,12.30
2023-01-17T08:48:38.576Z,14.65
2023-01-17T08:51:11.309Z,15.48
2023-01-17T08:53:43.358Z,12.50
2023-01-17T08:56:15.292Z,12.80
2023-01-17T08:58:47.298Z,13.77
2023-01-17T09:01:19.446Z,14.25
2023-01-17T09:03:54.247Z,13.40
2023-01-17T09:06:26.236Z,13.50
2023-01-17T09:09:00.956Z,12.77
2023-01-17T09:11:33.144Z,13.38
2023-01-17T09:14:05.062Z,11.95
2023-01-17T09:16:37.007Z,11.50
2023-01-17T09:19:09.746Z,10.80
2023-01-17T09:21:41.703Z,11.77
2023-01-17T09:24:13.895Z,12.18
2023-01-17T09:26:46.069Z,12.48
2023-01-17T09:29:19.074Z,12.63
2023-01-17T09:31:51.239Z,13.48
2023-01-17T09:34:24.689Z,13.75
2023-01-17T09:36:57.328Z,13.48
2023-01-17T09:39:29.322Z,13.80
2023-01-17T09:42:34.717Z,14.15
2023-01-17T09:45:16.727Z,14.52
2023-01-17T09:47:54.089Z,14.05
2023-01-17T09:50:44.244Z,14.02
2023-01-17T09:53:21.181Z,13.32
2023-01-17T09:55:55.736Z,14.25
2023-01-17T09:58:46.755Z,15.35
2023-01-17T10:01:56.965Z,14.93
2023-01-17T10:04:49.396Z,15.63
2023-01-17T10:07:43.500Z,14.23
2023-01-17T10:10:30.528Z,15.35
2023-01-17T10:13:38.970Z,15.73
2023-01-17T10:16:19.959Z,14.00
2023-01-17T10:18:54.896Z,13.48
2023-01-17T10:21:38.701Z,13.60
2023-01-17T10:24:38.278Z,13.68
2023-01-17T10:27:22.272Z,12.82
2023-01-17T10:29:54.673Z,11.02
2023-01-17T10:32:33.308Z,11.98
2023-01-17T10:35:17.729Z,12.63
2023-01-17T10:37:52.618Z,11.75
2023-01-17T10:40:46.773Z,11.98
2023-01-17T10:44:00.043Z,12.90
2023-01-17T10:46:41.590Z,12.43
2023-01-17T10:49:19.235Z,10.85
2023-01-17T10:52:12.440Z,12.02
2023-01-17T10:54:47.131Z,11.65
2023-01-17T10:57:25.037Z,11.73
2023-01-17T11:00:01.475Z,12.73
2023-01-17T11:02:40.241Z,12.38
2023-01-17T11:05:21.878Z,11.23
2023-01-17T11:08:05.177Z,11.05
2023-01-17T11:10:54.414Z,11.85
2023-01-17T11:13:37.011Z,12.90
2023-01-17T11:16:22.081Z,13.60
2023-01-17T11:19:17.658Z,12.48
2023-01-17T11:21:56.258Z,13.82
2023-01-17T11:24:58.570Z,14.00
2023-01-17T11:27:35.658Z,13.68
2023-01-17T11:30:17.245Z,16.40
2023-01-17T11:32:59.222Z,13.68
2023-01-17T11:35:33.466Z,14.13
2023-01-17T11:38:22.247Z,12.60
2023-01-17T11:41:14.404Z,14.48
2023-01-17T11:43:57.971Z,13.50
2023-01-17T11:46:30.322Z,15.00
2023-01-17T11:49:02.305Z,15.15
2023-01-17T11:51:41.647Z,13.60
2023-01-17T11:54:39.294Z,14.38
2023-01-17T11:57:25.172Z,12.63
2023-01-17T12:00:22.660Z,13.35
2023-01-17T12:03:25.428Z,14.30
2023-01-17T12:06:19.762Z,13.50
2023-01-17T12:09:32.366Z,12.63
2023-01-17T12:12:42.801Z,13.13
2023-01-17T12:15:36.882Z,14.80
2023-01-17T12:18:36.438Z,14.40
2023-01-17T12:21:31.026Z,14.70
2023-01-17T12:24:41.858Z,12.77
2023-01-17T12:27:28.726Z,12.73
2023-01-17T12:30:22.331Z,12.25
2023-01-17T12:33:02.938Z,12.35
2023-01-17T12:35:45.347Z,11.80
2023-01-17T12:38:32.624Z,13.35
2023-01-17T12:41:32.145Z,12.05
2023-01-17T12:44:04.126Z,13.00
2023-01-17T12:46:49.727Z,13.07
2023-01-17T12:49:58.350Z,14.93
2023-01-17T12:52:45.381Z,13.90
2023-01-17T12:55:26.267Z,13.73
2023-01-17T12:58:01.993Z,15.13
2023-01-17T13:00:38.110Z,15.15
2023-01-17T13:03:40.171Z,18.50
2023-01-17T13:06:22.310Z,16.85
2023-01-17T13:08:58.552Z,14.93
2023-01-17T13:11:41.483Z,12.88
2023-01-17T13:14:13.432Z,13.52
2023-01-17T13:16:54.127Z,12.13
2023-01-17T13:19:47.463Z,15.18
2023-01-17T13:22:23.335Z,13.05
2023-01-17T13:25:36.535Z,14.13
2023-01-17T13:28:29.798Z,26.45
2023-01-17T13:31:27.710Z,20.27
2023-01-17T13:34:08.915Z,16.23
2023-01-17T13:37:05.162Z,15.10
2023-01-17T13:39:52.440Z,14.23
2023-01-17T13:42:39.303Z,12.15
2023-01-17T13:45:20.567Z,15.85
2023-01-17T13:47:54.209Z,17.10
2023-01-17T13:50:41.280Z,13.75
2023-01-17T13:53:39.463Z,12.65
2023-01-17T13:56:11.365Z,17.40
2023-01-17T13:58:50.627Z,16.70
2023-01-17T14:01:43.383Z,16.17
2023-01-17T14:04:15.490Z,14.60
2023-01-17T14:06:56.870Z,13.45
2023-01-17T14:09:42.236Z,12.55
2023-01-17T14:12:15.406Z,19.58
2023-01-17T14:14:50.831Z,20.55
2023-01-17T14:17:23.346Z,19.42
2023-01-17T14:20:19.332Z,15.88
2023-01-17T14:23:29.915Z,18.23
2023-01-17T14:26:21.678Z,19.48
2023-01-17T14:28:54.649Z,19.40
2023-01-17T14:31:28.274Z,18.23
2023-01-17T14:34:14.317Z,18.08
2023-01-17T14:36:46.342Z,19.33
2023-01-17T14:39:23.055Z,16.70
2023-01-17T14:41:55.120Z,24.75
2023-01-17T14:44:27.097Z,30.88
2023-01-17T14:46:59.268Z,40.28
2023-01-17T14:49:31.273Z,51.00
2023-01-17T14:52:06.544Z,73.22
2023-01-17T14:54:47.774Z,57.42
2023-01-17T14:57:29.458Z,42.25
2023-01-17T15:00:15.667Z,33.78
2023-01-17T15:02:49.302Z,30.88
2023-01-17T15:05:24.835Z,24.90
2023-01-17T15:07:58.516Z,27.48
2023-01-17T15:10:33.190Z,23.70
2023-01-17T15:13:10.842Z,19.92
2023-01-17T15:15:43.057Z,21.67
2023-01-17T15:18:14.970Z,18.42
2023-01-17T15:21:09.360Z,18.10
2023-01-17T15:23:46.523Z,19.17
2023-01-17T15:26:23.264Z,21.40
2023-01-17T15:29:05.516Z,21.30
2023-01-17T15:31:50.257Z,26.60
2023-01-17T15:34:37.429Z,28.85
2023-01-17T15:37:30.801Z,31.35
2023-01-17T15:40:04.965Z,32.67
2023-01-17T15:42:42.653Z,33.53
2023-01-17T15:45:20.160Z,33.67
2023-01-17T15:47:52.140Z,31.42
2023-01-17T15:50:30.857Z,33.25
2023-01-17T15:53:06.052Z,32.05
2023-01-17T15:55:39.728Z,37.28
2023-01-17T15:58:27.508Z,48.78
2023-01-17T16:00:59.638Z,44.58
2023-01-17T16:03:31.634Z,51.10
2023-01-17T16:06:04.847Z,53.92
2023-01-17T16:08:40.274Z,54.45
2023-01-17T16:11:13.377Z,55.00
2023-01-17T16:13:47.640Z,53.22
2023-01-17T16:16:23.637Z,65.25
2023-01-17T16:19:01.014Z,57.90
2023-01-17T16:21:33.116Z,48.10
2023-01-17T16:24:06.313Z,39.28
2023-01-17T16:26:38.286Z,30.02
2023-01-17T16:29:10.511Z,28.55
2023-01-17T16:31:42.440Z,26.95
2023-01-17T16:34:14.406Z,26.13
2023-01-17T16:36:46.380Z,26.33
2023-01-17T16:39:18.319Z,25.95
2023-01-17T16:41:50.180Z,29.63
2023-01-17T16:44:22.156Z,37.55
2023-01-17T16:46:54.132Z,43.42
2023-01-17T16:49:26.216Z,40.92
2023-01-17T16:51:59.238Z,42.42
2023-01-17T16:54:32.175Z,38.58
2023-01-17T16:57:04.113Z,37.92
2023-01-17T16:59:49.839Z,37.25
2023-01-17T17:02:23.356Z,38.78
2023-01-17T17:04:55.385Z,40.50
2023-01-17T17:07:27.543Z,43.08
2023-01-17T17:09:59.532Z,43.80
2023-01-17T17:12:32.524Z,44.33
2023-01-17T17:15:04.904Z,45.88
2023-01-17T17:17:38.354Z,52.28
2023-01-17T17:20:13.148Z,52.85
2023-01-17T17:22:50.819Z,56.42
2023-01-17T17:25:22.883Z,51.08
2023-01-17T17:27:55.065Z,49.85
2023-01-17T17:30:27.631Z,40.47
2023-01-17T17:32:59.759Z,46.38
2023-01-17T17:35:34.962Z,44.08
2023-01-17T17:38:08.192Z,38.85
2023-01-17T17:40:40.052Z,44.15
2023-01-17T17:43:12.065Z,37.80
2023-01-17T17:45:43.988Z,43.10
2023-01-17T17:48:15.991Z,33.83
2023-01-17T17:50:59.402Z,32.80
2023-01-17T17:53:32.079Z,33.92
2023-01-17T17:56:06.042Z,31.83
2023-01-17T17:58:38.008Z,36.67
2023-01-17T18:01:09.920Z,35.15
2023-01-17T18:03:41.875Z,36.10
2023-01-17T18:06:14.070Z,35.58
2023-01-17T18:08:46.354Z,39.92
2023-01-17T18:11:22.074Z,49.95
2023-01-17T18:13:55.678Z,49.90
2023-01-17T18:16:35.995Z,47.78
2023-01-17T18:19:12.167Z,40.72
2023-01-17T18:21:44.615Z,48.22
2023-01-17T18:24:18.827Z,41.75
2023-01-17T18:26:53.542Z,40.33
2023-01-17T18:29:27.459Z,36.17
2023-01-17T18:31:59.500Z,40.65
2023-01-17T18:34:31.543Z,38.60
2023-01-17T18:37:03.494Z,46.85
2023-01-17T18:39:35.451Z,45.22
2023-01-17T18:42:07.988Z,49.85
2023-01-17T18:44:40.025Z,51.17
2023-01-17T18:47:13.338Z,46.90
2023-01-17T18:49:45.258Z,45.38
2023-01-17T18:52:19.770Z,43.83
2023-01-17T18:54:51.673Z,39.78
2023-01-17T18:57:24.456Z,44.30
2023-01-17T18:59:57.484Z,40.55
2023-01-17T19:02:29.473Z,43.35
2023-01-17T19:05:05.872Z,43.90
2023-01-17T19:07:37.802Z,45.88
2023-01-17T19:10:10.346Z,51.25
2023-01-17T19:12:42.326Z,56.22
2023-01-17T19:15:14.403Z,52.13
2023-01-17T19:17:46.328Z,57.00
2023-01-17T19:20:19.296Z,68.60
2023-01-17T19:22:51.565Z,49.33
2023-01-17T19:25:25.924Z,66.75
2023-01-17T19:27:58.628Z,52.92
2023-01-17T19:30:34.625Z,50.53
2023-01-17T19:33:06.817Z,54.08
2023-01-17T19:35:38.715Z,54.55
2023-01-17T19:38:10.593Z,55.97
2023-01-17T19:40:42.552Z,57.80
2023-01-17T19:43:14.483Z,57.47
2023-01-17T19:45:55.962Z,61.60
2023-01-17T19:48:28.513Z,56.60
2023-01-17T19:51:18.571Z,55.75
2023-01-17T19:53:50.827Z,47.00
2023-01-17T19:56:25.311Z,44.80
2023-01-17T19:59:01.514Z,48.22
2023-01-17T20:01:34.722Z,52.33
2023-01-17T20:04:06.776Z,56.78
2023-01-17T20:06:38.764Z,69.88
2023-01-17T20:09:11.084Z,90.43
2023-01-17T20:11:43.558Z,99.38
2023-01-17T20:14:16.802Z,67.57
2023-01-17T20:16:49.945Z,62.47
2023-01-17T20:19:21.948Z,60.03
2023-01-17T20:21:54.400Z,55.65
2023-01-17T20:24:26.499Z,58.63
2023-01-17T20:26:58.382Z,57.53
2023-01-17T20:29:30.453Z,52.08
2023-01-17T20:32:02.495Z,52.83
2023-01-17T20:34:34.443Z,52.67
2023-01-17T20:37:08.991Z,60.30
2023-01-17T20:39:41.428Z,58.50
2023-01-17T20:42:13.400Z,57.42
2023-01-17T20:44:45.831Z,55.70
2023-01-17T20:47:18.502Z,54.33
2023-01-17T20:49:50.427Z,51.78
2023-01-17T20:52:22.416Z,66.07
2023-01-17T20:54:54.439Z,58.00
2023-01-17T20:57:26.361Z,56.78
2023-01-17T20:59:58.407Z,47.88
2023-01-17T21:02:30.479Z,46.45
2023-01-17T21:05:04.008Z,49.25
2023-01-17T21:07:35.981Z,95.45
2023-01-17T21:10:08.363Z,90.30
2023-01-17T21:12:40.860Z,70.57
2023-01-17T21:15:17.716Z,71.32
2023-01-17T21:17:49.691Z,63.60
2023-01-17T21:20:21.617Z,55.95
2023-01-17T21:22:53.558Z,67.88
2023-01-17T21:25:25.489Z,49.60
2023-01-17T21:27:57.740Z,48.15
2023-01-17T21:30:29.950Z,55.20
2023-01-17T21:33:01.979Z,48.15
2023-01-17T21:35:33.966Z,45.55
2023-01-17T21:38:06.213Z,52.85
2023-01-17T21:40:38.416Z,50.22
2023-01-17T21:43:10.987Z,57.13
2023-01-17T21:45:43.128Z,45.65
2023-01-17T21:48:15.144Z,46.17
2023-01-17T21:50:47.663Z,48.47
2023-01-17T21:53:19.683Z,55.22
2023-01-17T21:56:10.101Z,56.15
2023-01-17T21:58:45.115Z,48.78
2023-01-17T22:01:18.891Z,109.05
2023-01-17T22:04:10.405Z,63.38
2023-01-17T22:06:42.325Z,57.97
2023-01-17T22:09:15.390Z,79.93
2023-01-17T22:11:47.427Z,81.45
2023-01-17T22:14:19.827Z,85.90
2023-01-17T22:16:52.031Z,74.30
2023-01-17T22:19:23.968Z,73.55
2023-01-17T22:21:55.923Z,84.55
2023-01-17T22:24:27.880Z,92.22
2023-01-17T22:26:59.873Z,92.90
2023-01-17T22:29:34.280Z,193.57
2023-01-17T22:32:06.274Z,75.75
2023-01-17T22:34:38.205Z,111.95
2023-01-17T22:37:10.371Z,81.30
2023-01-17T22:39:42.357Z,69.35
2023-01-17T22:42:15.549Z,53.45
2023-01-17T22:44:48.176Z,45.13
2023-01-17T22:47:20.131Z,58.63
2023-01-17T22:49:52.106Z,78.03
2023-01-17T22:52:24.185Z,72.05
2023-01-17T22:54:56.673Z,50.65
2023-01-17T22:57:28.682Z,48.60
2023-01-17T23:00:00.604Z,57.88
2023-01-17T23:02:32.551Z,66.15
2023-01-17T23:05:04.704Z,47.20
2023-01-17T23:07:46.755Z,65.03
2023-01-17T23:10:38.730Z,98.63
2023-01-17T23:13:10.767Z,51.95
2023-01-17T23:16:01.701Z,51.25
2023-01-17T23:18:52.361Z,49.35
2023-01-17T23:21:44.262Z,72.55
2023-01-17T23:24:16.254Z,48.60
2023-01-17T23:27:08.116Z,51.97
2023-01-17T23:29:40.102Z,50.03
2023-01-17T23:32:12.251Z,45.85
2023-01-17T23:34:44.214Z,63.72
2023-01-17T23:37:16.221Z,55.60
2023-01-17T23:39:48.193Z,59.83
2023-01-17T23:42:38.772Z,76.70
2023-01-17T23:45:10.843Z,54.70
2023-01-17T23:47:45.245Z,65.82
2023-01-17T23:50:17.233Z,51.47
2023-01-17T23:52:49.100Z,52.33
2023-01-17T23:55:20.959Z,63.65
2023-01-17T23:57:53.061Z,66.75
